createdAt,value
2018-05-26T00:08:09.190Z,18.40
2018-05-26T00:13:13.421Z,18.40
2018-05-26T00:23:21.703Z,18.40
2018-05-26T00:28:25.568Z,18.30
2018-05-26T00:33:30.157Z,18.30
2018-05-26T00:38:34.756Z,18.30
2018-05-26T00:43:39.345Z,18.30
2018-05-26T00:48:42.444Z,18.20
2018-05-26T00:53:45.922Z,18.10
2018-05-26T00:58:49.776Z,18.20
2018-05-26T01:03:54.008Z,18.10
2018-05-26T01:08:57.093Z,18.00
2018-05-26T01:14:00.178Z,18.00
2018-05-26T01:19:03.654Z,17.90
2018-05-26T01:24:07.998Z,17.70
2018-05-26T01:29:11.083Z,17.70
2018-05-26T01:34:14.172Z,17.70
2018-05-26T01:39:18.432Z,17.70
2018-05-26T01:44:21.517Z,17.70
2018-05-26T01:49:25.336Z,17.70
2018-05-26T01:54:29.174Z,17.70
2018-05-26T01:59:32.661Z,17.50
2018-05-26T02:04:36.890Z,17.40
2018-05-26T02:09:40.766Z,17.30
2018-05-26T02:14:43.853Z,17.30
2018-05-26T02:19:48.083Z,17.20
2018-05-26T02:24:51.929Z,17.20
2018-05-26T02:29:55.414Z,17.10
2018-05-26T02:34:58.515Z,17.10
2018-05-26T02:40:03.110Z,17.00
2018-05-26T02:45:06.199Z,17.00
2018-05-26T02:50:10.803Z,17.10
2018-05-26T02:55:14.652Z,17.10
2018-05-26T03:00:18.515Z,17.10
2018-05-26T03:05:27.618Z,17.00
2018-05-26T03:10:36.800Z,17.00
2018-05-26T03:25:49.945Z,17.00
2018-05-26T03:30:53.024Z,17.00
2018-05-26T03:35:56.883Z,16.90
2018-05-26T03:41:00.733Z,16.80
2018-05-26T03:51:09.778Z,16.80
2018-05-26T03:56:32.158Z,16.80
2018-05-26T04:01:35.248Z,16.80
2018-05-26T04:06:39.479Z,16.90
2018-05-26T04:11:42.958Z,16.80
2018-05-26T04:16:46.827Z,16.80
2018-05-26T04:21:51.138Z,16.90
2018-05-26T04:26:54.991Z,16.90
2018-05-26T04:37:03.277Z,16.90
2018-05-26T04:42:07.887Z,17.00
2018-05-26T04:47:11.372Z,17.00
2018-05-26T04:52:15.231Z,17.00
2018-05-26T05:07:28.686Z,17.40
2018-05-26T05:22:40.655Z,18.20
2018-05-26T05:27:43.749Z,18.70
2018-05-26T05:42:56.103Z,20.10
2018-05-26T05:48:00.313Z,20.60
2018-05-26T05:58:08.233Z,21.40
2018-05-26T06:03:11.712Z,21.70
2018-05-26T06:08:14.803Z,21.80
2018-05-26T06:18:22.319Z,22.20
2018-05-26T06:23:25.798Z,23.10
2018-05-26T06:28:30.032Z,22.40
2018-05-26T06:33:34.615Z,23.10
2018-05-26T06:38:38.107Z,22.90
2018-05-26T06:43:41.958Z,23.20
2018-05-26T06:48:45.445Z,22.70
2018-05-26T06:53:49.303Z,23.30
2018-05-26T06:58:53.157Z,22.80
2018-05-26T07:03:57.750Z,23.30
2018-05-26T07:09:01.984Z,24.20
2018-05-26T07:14:05.843Z,24.70
2018-05-26T07:19:09.686Z,25.60
2018-05-26T07:24:14.284Z,24.30
2018-05-26T07:29:18.871Z,24.40
2018-05-26T07:34:22.724Z,24.50
2018-05-26T07:39:25.826Z,24.80
2018-05-26T07:44:28.910Z,24.70
2018-05-26T07:49:32.004Z,24.90
2018-05-26T07:54:35.084Z,25.10
2018-05-26T07:59:38.182Z,25.50
2018-05-26T08:09:46.850Z,26.00
2018-05-26T08:14:50.326Z,26.50
2018-05-26T08:19:53.427Z,26.70
2018-05-26T08:24:56.524Z,26.80
2018-05-26T08:30:01.209Z,27.10
2018-05-26T08:35:04.978Z,27.60
2018-05-26T08:40:08.075Z,27.50
2018-05-26T08:45:12.299Z,29.00
2018-05-26T08:50:15.778Z,29.70
2018-05-26T08:55:20.379Z,29.70
2018-05-26T09:00:24.234Z,30.70
2018-05-26T09:05:27.462Z,30.90
2018-05-26T09:15:36.129Z,31.00
2018-05-26T09:20:39.608Z,30.00
2018-05-26T09:30:47.183Z,30.20
2018-05-26T09:40:54.732Z,30.60
2018-05-26T09:51:03.402Z,28.80
2018-05-26T10:06:15.358Z,28.60
2018-05-26T10:16:23.653Z,28.60
2018-05-26T10:21:27.874Z,29.00
2018-05-26T10:31:35.396Z,28.50
2018-05-26T10:36:38.474Z,28.30
2018-05-26T10:41:41.953Z,28.30
2018-05-26T10:46:45.446Z,28.30
2018-05-26T10:51:48.523Z,28.10
2018-05-26T10:56:52.765Z,28.20
2018-05-26T11:12:05.112Z,27.90
2018-05-26T11:17:08.240Z,28.10
2018-05-26T11:22:11.298Z,28.00
2018-05-26T11:27:14.394Z,28.20
2018-05-26T11:32:18.253Z,28.10
2018-05-26T11:42:27.678Z,28.40
2018-05-26T11:47:30.768Z,28.20
2018-05-26T11:52:33.864Z,28.10
2018-05-26T12:02:42.154Z,27.90
2018-05-26T12:07:45.246Z,28.00
2018-05-26T12:12:48.335Z,28.20
2018-05-26T12:17:51.420Z,28.10
2018-05-26T12:22:54.502Z,28.30
2018-05-26T12:27:59.107Z,28.10
2018-05-26T12:33:03.328Z,28.10
2018-05-26T12:38:07.172Z,28.00
2018-05-26T12:43:10.259Z,28.20
2018-05-26T12:48:13.339Z,28.20
2018-05-26T12:53:16.442Z,28.20
2018-05-26T12:58:19.930Z,28.20
2018-05-26T13:03:23.405Z,28.30
2018-05-26T13:08:27.254Z,28.40
2018-05-26T13:13:30.743Z,28.10
2018-05-26T13:28:44.206Z,28.30
2018-05-26T13:38:52.503Z,28.40
2018-05-26T13:49:00.427Z,28.50
2018-05-26T14:04:12.387Z,28.10
2018-05-26T14:09:16.619Z,28.20
2018-05-26T14:19:25.652Z,28.20
2018-05-26T14:29:35.746Z,28.20
2018-05-26T14:34:39.598Z,28.10
2018-05-26T14:39:42.699Z,28.20
2018-05-26T14:44:46.178Z,28.10
2018-05-26T14:49:49.305Z,28.10
2018-05-26T14:54:52.358Z,28.10
2018-05-26T15:05:00.784Z,28.20
2018-05-26T15:25:17.555Z,28.50
2018-05-26T15:30:20.660Z,28.40
2018-05-26T15:35:24.877Z,28.40
2018-05-26T15:45:33.162Z,28.40
2018-05-26T15:50:36.247Z,28.40
2018-05-26T16:00:43.767Z,28.50
2018-05-26T16:05:47.608Z,28.40
2018-05-26T16:10:51.109Z,28.40
2018-05-26T16:15:54.958Z,28.20
2018-05-26T16:20:58.451Z,28.30
2018-05-26T16:26:01.519Z,28.30
2018-05-26T16:31:04.608Z,28.30
2018-05-26T16:36:07.712Z,28.30
2018-05-26T16:41:10.779Z,28.20
2018-05-26T16:46:15.004Z,28.10
2018-05-26T17:01:27.360Z,28.00
2018-05-26T17:06:30.443Z,28.00
2018-05-26T17:11:34.671Z,28.00
2018-05-26T17:16:37.764Z,27.90
2018-05-26T17:21:42.964Z,27.90
2018-05-26T17:36:55.310Z,27.70
2018-05-26T17:52:07.662Z,27.60
2018-05-26T17:57:11.522Z,27.50
2018-05-26T18:02:15.771Z,27.40
2018-05-26T18:07:19.255Z,27.40
2018-05-26T18:17:29.037Z,27.20
2018-05-26T18:22:32.902Z,27.20
2018-05-26T18:27:36.386Z,27.00
2018-05-26T18:37:44.311Z,26.80
2018-05-26T18:42:48.542Z,26.60
2018-05-26T18:47:52.029Z,26.50
2018-05-26T18:52:55.880Z,26.30
2018-05-26T19:03:04.897Z,25.90
2018-05-26T19:08:09.505Z,25.70
2018-05-26T19:13:12.994Z,25.50
2018-05-26T19:18:17.229Z,25.30
2018-05-26T19:23:21.468Z,25.10
2018-05-26T19:33:29.780Z,24.90
2018-05-26T19:38:33.618Z,24.70
2018-05-26T19:48:41.911Z,24.40
2018-05-26T19:58:51.077Z,24.30
2018-05-26T20:03:55.296Z,24.20
2018-05-26T20:14:02.848Z,23.90
2018-05-26T20:19:05.940Z,23.90
2018-05-26T20:24:09.022Z,23.70
2018-05-26T20:29:13.248Z,23.60
2018-05-26T20:34:16.738Z,23.50
2018-05-26T20:39:21.037Z,23.40
2018-05-26T20:44:24.127Z,23.30
2018-05-26T20:49:28.031Z,23.20
2018-05-26T20:54:31.146Z,23.10
2018-05-26T20:59:34.237Z,23.00
2018-05-26T21:09:43.435Z,22.80
2018-05-26T21:14:47.031Z,22.70
2018-05-26T21:19:50.915Z,22.50
2018-05-26T21:29:58.431Z,22.40
2018-05-26T21:40:05.983Z,22.00
2018-05-26T21:45:10.598Z,21.80
2018-05-26T21:50:14.833Z,21.60
2018-05-26T21:55:19.435Z,21.40
2018-05-26T22:00:24.045Z,21.40
2018-05-26T22:05:27.899Z,21.30
2018-05-26T22:20:41.361Z,21.30
2018-05-26T22:25:45.600Z,21.40
2018-05-26T22:30:49.996Z,21.40
2018-05-26T22:35:53.074Z,21.40
2018-05-26T22:40:57.822Z,21.50
2018-05-26T22:46:01.688Z,21.40
2018-05-26T22:56:10.363Z,21.30
2018-05-26T23:01:14.953Z,21.20
2018-05-26T23:06:18.047Z,21.10
2018-05-26T23:11:21.901Z,20.90
2018-05-26T23:16:24.976Z,20.80
2018-05-26T23:26:33.649Z,20.50
2018-05-26T23:31:37.491Z,20.40
2018-05-26T23:36:42.086Z,20.30
2018-05-26T23:41:45.179Z,20.20
2018-05-26T23:46:48.259Z,20.20
2018-05-26T23:51:52.854Z,20.00
